sensor_id;sensor_type;location;lat;lon;timestamp;temperature;humidity
68922;DHT22;55959;51.244;5.724;2024-01-16T00:02:03;5.20;77.30
68922;DHT22;55959;51.244;5.724;2024-01-16T00:04:29;5.20;77.30
68922;DHT22;55959;51.244;5.724;2024-01-16T00:06:56;5.20;77.30
68922;DHT22;55959;51.244;5.724;2024-01-16T00:09:22;5.10;77.30
68922;DHT22;55959;51.244;5.724;2024-01-16T00:11:48;5.10;77.30
68922;DHT22;55959;51.244;5.724;2024-01-16T00:14:14;5.10;77.30
68922;DHT22;55959;51.244;5.724;2024-01-16T00:16:46;5.10;77.30
68922;DHT22;55959;51.244;5.724;2024-01-16T00:19:13;5.10;77.30
68922;DHT22;55959;51.244;5.724;2024-01-16T00:21:43;5.10;77.30
68922;DHT22;55959;51.244;5.724;2024-01-16T00:24:13;5.10;77.40
68922;DHT22;55959;51.244;5.724;2024-01-16T00:26:39;5.10;77.30
68922;DHT22;55959;51.244;5.724;2024-01-16T00:29:05;5.10;77.40
68922;DHT22;55959;51.244;5.724;2024-01-16T00:31:31;5.10;77.40
68922;DHT22;55959;51.244;5.724;2024-01-16T00:33:57;5.10;77.50
68922;DHT22;55959;51.244;5.724;2024-01-16T00:36:23;5.10;77.50
68922;DHT22;55959;51.244;5.724;2024-01-16T00:38:48;5.10;77.50
68922;DHT22;55959;51.244;5.724;2024-01-16T00:41:14;5.10;77.50
68922;DHT22;55959;51.244;5.724;2024-01-16T00:43:41;5.10;77.50
68922;DHT22;55959;51.244;5.724;2024-01-16T00:46:08;5.10;77.50
68922;DHT22;55959;51.244;5.724;2024-01-16T00:48:33;5.10;77.60
68922;DHT22;55959;51.244;5.724;2024-01-16T00:50:59;5.10;77.60
68922;DHT22;55959;51.244;5.724;2024-01-16T00:53:26;5.10;77.60
68922;DHT22;55959;51.244;5.724;2024-01-16T00:55:52;5.10;77.50
68922;DHT22;55959;51.244;5.724;2024-01-16T00:58:23;5.10;77.60
68922;DHT22;55959;51.244;5.724;2024-01-16T01:00:49;5.10;77.60
68922;DHT22;55959;51.244;5.724;2024-01-16T01:03:15;5.20;77.70
68922;DHT22;55959;51.244;5.724;2024-01-16T01:05:41;5.10;77.60
68922;DHT22;55959;51.244;5.724;2024-01-16T01:08:07;5.20;77.70
68922;DHT22;55959;51.244;5.724;2024-01-16T01:10:34;5.20;77.70
68922;DHT22;55959;51.244;5.724;2024-01-16T01:13:00;5.20;78.50
68922;DHT22;55959;51.244;5.724;2024-01-16T01:15:25;5.20;77.70
68922;DHT22;55959;51.244;5.724;2024-01-16T01:17:51;5.20;77.60
68922;DHT22;55959;51.244;5.724;2024-01-16T01:20:18;5.20;77.60
68922;DHT22;55959;51.244;5.724;2024-01-16T01:22:45;5.20;77.60
68922;DHT22;55959;51.244;5.724;2024-01-16T01:25:11;5.20;77.50
68922;DHT22;55959;51.244;5.724;2024-01-16T01:27:38;5.20;77.50
68922;DHT22;55959;51.244;5.724;2024-01-16T01:30:06;5.20;77.60
68922;DHT22;55959;51.244;5.724;2024-01-16T01:32:34;5.20;77.60
68922;DHT22;55959;51.244;5.724;2024-01-16T01:34:59;5.20;77.50
68922;DHT22;55959;51.244;5.724;2024-01-16T01:37:25;5.20;77.50
68922;DHT22;55959;51.244;5.724;2024-01-16T01:39:51;5.20;77.50
68922;DHT22;55959;51.244;5.724;2024-01-16T01:42:17;5.20;77.50
68922;DHT22;55959;51.244;5.724;2024-01-16T01:44:43;5.20;77.50
68922;DHT22;55959;51.244;5.724;2024-01-16T01:47:09;5.20;77.50
68922;DHT22;55959;51.244;5.724;2024-01-16T01:49:35;5.20;77.50
68922;DHT22;55959;51.244;5.724;2024-01-16T01:52:03;5.20;77.50
68922;DHT22;55959;51.244;5.724;2024-01-16T01:54:30;5.20;77.50
68922;DHT22;55959;51.244;5.724;2024-01-16T01:56:57;5.20;77.50
68922;DHT22;55959;51.244;5.724;2024-01-16T01:59:24;5.20;77.50
68922;DHT22;55959;51.244;5.724;2024-01-16T02:01:51;5.20;77.50
68922;DHT22;55959;51.244;5.724;2024-01-16T02:04:21;5.20;77.50
68922;DHT22;55959;51.244;5.724;2024-01-16T02:06:48;5.20;77.50
68922;DHT22;55959;51.244;5.724;2024-01-16T02:09:14;5.20;77.40
68922;DHT22;55959;51.244;5.724;2024-01-16T02:11:41;5.10;77.30
68922;DHT22;55959;51.244;5.724;2024-01-16T02:14:10;5.10;77.30
68922;DHT22;55959;51.244;5.724;2024-01-16T02:16:40;5.10;77.40
68922;DHT22;55959;51.244;5.724;2024-01-16T02:19:07;5.10;77.50
68922;DHT22;55959;51.244;5.724;2024-01-16T02:21:39;5.20;77.50
68922;DHT22;55959;51.244;5.724;2024-01-16T02:24:08;5.10;77.50
68922;DHT22;55959;51.244;5.724;2024-01-16T02:26:36;5.10;77.60
68922;DHT22;55959;51.244;5.724;2024-01-16T02:29:05;5.20;77.70
68922;DHT22;55959;51.244;5.724;2024-01-16T02:31:31;5.20;77.70
68922;DHT22;55959;51.244;5.724;2024-01-16T02:33:58;5.20;77.70
68922;DHT22;55959;51.244;5.724;2024-01-16T02:36:27;5.20;77.70
68922;DHT22;55959;51.244;5.724;2024-01-16T02:38:54;5.10;77.60
68922;DHT22;55959;51.244;5.724;2024-01-16T02:41:21;5.20;77.70
68922;DHT22;55959;51.244;5.724;2024-01-16T02:43:47;5.20;78.50
68922;DHT22;55959;51.244;5.724;2024-01-16T02:46:14;5.20;77.70
68922;DHT22;55959;51.244;5.724;2024-01-16T02:48:40;5.20;77.60
68922;DHT22;55959;51.244;5.724;2024-01-16T02:51:08;5.20;77.60
68922;DHT22;55959;51.244;5.724;2024-01-16T02:53:34;5.20;77.50
68922;DHT22;55959;51.244;5.724;2024-01-16T02:56:00;5.20;77.50
68922;DHT22;55959;51.244;5.724;2024-01-16T02:58:27;5.20;77.50
68922;DHT22;55959;51.244;5.724;2024-01-16T03:00:54;5.20;77.60
68922;DHT22;55959;51.244;5.724;2024-01-16T03:03:20;5.20;77.50
68922;DHT22;55959;51.244;5.724;2024-01-16T03:05:47;5.20;77.50
68922;DHT22;55959;51.244;5.724;2024-01-16T03:08:13;5.20;77.50
68922;DHT22;55959;51.244;5.724;2024-01-16T03:10:39;5.20;77.50
68922;DHT22;55959;51.244;5.724;2024-01-16T03:13:05;5.20;77.60
68922;DHT22;55959;51.244;5.724;2024-01-16T03:15:31;5.20;77.60
68922;DHT22;55959;51.244;5.724;2024-01-16T03:18:00;5.20;77.70
68922;DHT22;55959;51.244;5.724;2024-01-16T03:20:29;5.10;77.70
68922;DHT22;55959;51.244;5.724;2024-01-16T03:22:55;5.10;77.70
68922;DHT22;55959;51.244;5.724;2024-01-16T03:25:21;5.20;77.70
68922;DHT22;55959;51.244;5.724;2024-01-16T03:27:47;5.10;77.50
68922;DHT22;55959;51.244;5.724;2024-01-16T03:30:13;5.10;77.50
68922;DHT22;55959;51.244;5.724;2024-01-16T03:32:39;5.10;77.50
68922;DHT22;55959;51.244;5.724;2024-01-16T03:35:06;5.10;77.50
68922;DHT22;55959;51.244;5.724;2024-01-16T03:37:33;5.10;77.50
68922;DHT22;55959;51.244;5.724;2024-01-16T03:39:59;5.10;77.50
68922;DHT22;55959;51.244;5.724;2024-01-16T03:42:25;5.10;77.30
68922;DHT22;55959;51.244;5.724;2024-01-16T03:44:53;5.10;77.30
68922;DHT22;55959;51.244;5.724;2024-01-16T03:47:19;5.10;77.20
68922;DHT22;55959;51.244;5.724;2024-01-16T03:49:45;5.10;77.10
68922;DHT22;55959;51.244;5.724;2024-01-16T03:52:12;5.10;77.10
68922;DHT22;55959;51.244;5.724;2024-01-16T03:54:38;5.10;76.90
68922;DHT22;55959;51.244;5.724;2024-01-16T03:57:04;5.10;76.80
68922;DHT22;55959;51.244;5.724;2024-01-16T03:59:29;5.10;76.70
68922;DHT22;55959;51.244;5.724;2024-01-16T04:01:55;5.10;76.70
68922;DHT22;55959;51.244;5.724;2024-01-16T04:04:21;5.00;76.50
68922;DHT22;55959;51.244;5.724;2024-01-16T04:06:48;5.00;76.50
68922;DHT22;55959;51.244;5.724;2024-01-16T04:09:14;5.00;76.50
68922;DHT22;55959;51.244;5.724;2024-01-16T04:11:40;5.00;76.40
68922;DHT22;55959;51.244;5.724;2024-01-16T04:14:06;5.00;76.30
68922;DHT22;55959;51.244;5.724;2024-01-16T04:16:32;5.00;76.30
68922;DHT22;55959;51.244;5.724;2024-01-16T04:18:58;4.90;76.10
68922;DHT22;55959;51.244;5.724;2024-01-16T04:21:24;4.90;76.10
68922;DHT22;55959;51.244;5.724;2024-01-16T04:23:50;4.90;76.00
68922;DHT22;55959;51.244;5.724;2024-01-16T04:26:16;4.90;76.00
68922;DHT22;55959;51.244;5.724;2024-01-16T04:28:42;4.90;75.90
68922;DHT22;55959;51.244;5.724;2024-01-16T04:31:08;4.80;75.80
68922;DHT22;55959;51.244;5.724;2024-01-16T04:33:34;4.80;75.80
68922;DHT22;55959;51.244;5.724;2024-01-16T04:36:00;4.80;75.70
68922;DHT22;55959;51.244;5.724;2024-01-16T04:38:26;4.70;75.70
68922;DHT22;55959;51.244;5.724;2024-01-16T04:40:51;4.70;75.70
68922;DHT22;55959;51.244;5.724;2024-01-16T04:43:17;4.70;75.60
68922;DHT22;55959;51.244;5.724;2024-01-16T04:45:43;4.70;75.60
68922;DHT22;55959;51.244;5.724;2024-01-16T04:48:09;4.60;75.50
68922;DHT22;55959;51.244;5.724;2024-01-16T04:50:35;4.70;75.60
68922;DHT22;55959;51.244;5.724;2024-01-16T04:53:01;4.60;75.50
68922;DHT22;55959;51.244;5.724;2024-01-16T04:55:28;4.60;75.50
68922;DHT22;55959;51.244;5.724;2024-01-16T04:57:55;4.60;75.50
68922;DHT22;55959;51.244;5.724;2024-01-16T05:00:22;4.60;75.50
68922;DHT22;55959;51.244;5.724;2024-01-16T05:02:48;4.60;75.50
68922;DHT22;55959;51.244;5.724;2024-01-16T05:05:14;4.50;75.40
68922;DHT22;55959;51.244;5.724;2024-01-16T05:07:41;4.50;75.30
68922;DHT22;55959;51.244;5.724;2024-01-16T05:10:09;4.50;75.30
68922;DHT22;55959;51.244;5.724;2024-01-16T05:12:38;4.40;76.00
68922;DHT22;55959;51.244;5.724;2024-01-16T05:15:06;4.40;75.20
68922;DHT22;55959;51.244;5.724;2024-01-16T05:17:32;4.40;75.30
68922;DHT22;55959;51.244;5.724;2024-01-16T05:19:59;4.40;75.20
68922;DHT22;55959;51.244;5.724;2024-01-16T05:22:25;4.40;75.10
68922;DHT22;55959;51.244;5.724;2024-01-16T05:24:51;4.40;75.10
68922;DHT22;55959;51.244;5.724;2024-01-16T05:27:17;4.40;75.10
68922;DHT22;55959;51.244;5.724;2024-01-16T05:29:43;4.40;75.10
68922;DHT22;55959;51.244;5.724;2024-01-16T05:32:09;4.30;74.90
68922;DHT22;55959;51.244;5.724;2024-01-16T05:34:34;4.30;74.90
68922;DHT22;55959;51.244;5.724;2024-01-16T05:37:00;4.30;74.90
68922;DHT22;55959;51.244;5.724;2024-01-16T05:39:26;4.30;74.90
68922;DHT22;55959;51.244;5.724;2024-01-16T05:41:52;4.30;74.90
68922;DHT22;55959;51.244;5.724;2024-01-16T05:44:18;4.20;74.80
68922;DHT22;55959;51.244;5.724;2024-01-16T05:46:44;4.20;74.80
68922;DHT22;55959;51.244;5.724;2024-01-16T05:49:09;4.20;74.70
68922;DHT22;55959;51.244;5.724;2024-01-16T05:51:35;4.20;74.70
68922;DHT22;55959;51.244;5.724;2024-01-16T05:54:02;4.20;74.70
68922;DHT22;55959;51.244;5.724;2024-01-16T05:56:29;4.20;74.50
68922;DHT22;55959;51.244;5.724;2024-01-16T05:58:56;4.10;74.50
68922;DHT22;55959;51.244;5.724;2024-01-16T06:01:22;4.20;74.50
68922;DHT22;55959;51.244;5.724;2024-01-16T06:03:48;4.10;74.70
68922;DHT22;55959;51.244;5.724;2024-01-16T06:06:14;4.10;74.40
68922;DHT22;55959;51.244;5.724;2024-01-16T06:08:40;4.10;74.30
68922;DHT22;55959;51.244;5.724;2024-01-16T06:11:06;4.10;74.30
68922;DHT22;55959;51.244;5.724;2024-01-16T06:13:32;4.10;74.20
68922;DHT22;55959;51.244;5.724;2024-01-16T06:15:58;4.10;74.10
68922;DHT22;55959;51.244;5.724;2024-01-16T06:18:24;4.10;74.10
68922;DHT22;55959;51.244;5.724;2024-01-16T06:20:50;4.00;73.90
68922;DHT22;55959;51.244;5.724;2024-01-16T06:23:16;4.00;73.90
68922;DHT22;55959;51.244;5.724;2024-01-16T06:25:42;4.00;73.90
68922;DHT22;55959;51.244;5.724;2024-01-16T06:28:08;4.00;73.90
68922;DHT22;55959;51.244;5.724;2024-01-16T06:30:34;4.00;73.90
68922;DHT22;55959;51.244;5.724;2024-01-16T06:33:00;4.00;73.80
68922;DHT22;55959;51.244;5.724;2024-01-16T06:35:25;3.90;73.70
68922;DHT22;55959;51.244;5.724;2024-01-16T06:37:51;3.90;73.70
68922;DHT22;55959;51.244;5.724;2024-01-16T06:40:17;3.90;73.70
68922;DHT22;55959;51.244;5.724;2024-01-16T06:42:44;3.90;73.60
68922;DHT22;55959;51.244;5.724;2024-01-16T06:45:10;3.80;73.50
68922;DHT22;55959;51.244;5.724;2024-01-16T06:47:38;3.80;73.50
68922;DHT22;55959;51.244;5.724;2024-01-16T06:50:05;3.80;73.60
68922;DHT22;55959;51.244;5.724;2024-01-16T06:52:37;3.80;73.60
68922;DHT22;55959;51.244;5.724;2024-01-16T06:55:03;3.70;73.60
68922;DHT22;55959;51.244;5.724;2024-01-16T06:57:30;3.70;73.50
68922;DHT22;55959;51.244;5.724;2024-01-16T06:59:55;3.70;74.30
68922;DHT22;55959;51.244;5.724;2024-01-16T07:02:21;3.70;73.50
68922;DHT22;55959;51.244;5.724;2024-01-16T07:04:47;3.70;73.50
68922;DHT22;55959;51.244;5.724;2024-01-16T07:07:13;3.70;73.50
68922;DHT22;55959;51.244;5.724;2024-01-16T07:09:39;3.60;74.30
68922;DHT22;55959;51.244;5.724;2024-01-16T07:12:05;3.60;73.50
68922;DHT22;55959;51.244;5.724;2024-01-16T07:14:32;3.60;73.50
68922;DHT22;55959;51.244;5.724;2024-01-16T07:17:03;3.60;73.50
68922;DHT22;55959;51.244;5.724;2024-01-16T07:19:32;3.60;73.40
68922;DHT22;55959;51.244;5.724;2024-01-16T07:22:01;3.50;73.40
68922;DHT22;55959;51.244;5.724;2024-01-16T07:24:29;3.50;73.40
68922;DHT22;55959;51.244;5.724;2024-01-16T07:26:55;3.50;73.40
68922;DHT22;55959;51.244;5.724;2024-01-16T07:29:23;3.50;73.30
68922;DHT22;55959;51.244;5.724;2024-01-16T07:31:50;3.50;73.40
68922;DHT22;55959;51.244;5.724;2024-01-16T07:34:18;3.50;73.40
68922;DHT22;55959;51.244;5.724;2024-01-16T07:36:50;3.40;73.30
68922;DHT22;55959;51.244;5.724;2024-01-16T07:39:26;3.40;73.30
68922;DHT22;55959;51.244;5.724;2024-01-16T07:41:52;3.40;73.30
68922;DHT22;55959;51.244;5.724;2024-01-16T07:44:18;3.40;73.20
68922;DHT22;55959;51.244;5.724;2024-01-16T07:46:44;3.40;73.20
68922;DHT22;55959;51.244;5.724;2024-01-16T07:49:09;3.40;73.30
68922;DHT22;55959;51.244;5.724;2024-01-16T07:51:35;3.40;73.30
68922;DHT22;55959;51.244;5.724;2024-01-16T07:54:07;3.40;73.30
68922;DHT22;55959;51.244;5.724;2024-01-16T07:56:34;3.40;73.30
68922;DHT22;55959;51.244;5.724;2024-01-16T07:59:00;3.30;73.40
68922;DHT22;55959;51.244;5.724;2024-01-16T08:01:29;3.40;73.30
68922;DHT22;55959;51.244;5.724;2024-01-16T08:03:58;3.30;73.20
68922;DHT22;55959;51.244;5.724;2024-01-16T08:06:25;3.30;73.10
68922;DHT22;55959;51.244;5.724;2024-01-16T08:08:56;3.30;73.20
68922;DHT22;55959;51.244;5.724;2024-01-16T08:11:22;3.30;73.20
68922;DHT22;55959;51.244;5.724;2024-01-16T08:13:48;3.30;73.20
68922;DHT22;55959;51.244;5.724;2024-01-16T08:16:17;3.30;73.30
68922;DHT22;55959;51.244;5.724;2024-01-16T08:18:46;3.30;73.30
68922;DHT22;55959;51.244;5.724;2024-01-16T08:21:11;3.30;73.40
68922;DHT22;55959;51.244;5.724;2024-01-16T08:23:37;3.30;73.30
68922;DHT22;55959;51.244;5.724;2024-01-16T08:26:04;3.30;73.30
68922;DHT22;55959;51.244;5.724;2024-01-16T08:28:30;3.30;73.30
68922;DHT22;55959;51.244;5.724;2024-01-16T08:30:56;3.30;73.30
68922;DHT22;55959;51.244;5.724;2024-01-16T08:33:23;3.30;73.30
68922;DHT22;55959;51.244;5.724;2024-01-16T08:35:49;3.30;73.20
68922;DHT22;55959;51.244;5.724;2024-01-16T08:38:15;3.30;73.20
68922;DHT22;55959;51.244;5.724;2024-01-16T08:40:41;3.30;73.20
68922;DHT22;55959;51.244;5.724;2024-01-16T08:43:07;3.30;73.20
68922;DHT22;55959;51.244;5.724;2024-01-16T08:45:33;3.30;73.20
68922;DHT22;55959;51.244;5.724;2024-01-16T08:47:59;3.30;73.20
68922;DHT22;55959;51.244;5.724;2024-01-16T08:50:25;3.30;73.20
68922;DHT22;55959;51.244;5.724;2024-01-16T08:52:57;3.30;73.20
68922;DHT22;55959;51.244;5.724;2024-01-16T08:55:23;3.30;73.20
68922;DHT22;55959;51.244;5.724;2024-01-16T08:57:49;3.30;73.30
68922;DHT22;55959;51.244;5.724;2024-01-16T09:00:16;3.30;73.30
68922;DHT22;55959;51.244;5.724;2024-01-16T09:02:42;3.30;73.30
68922;DHT22;55959;51.244;5.724;2024-01-16T09:05:14;3.30;73.40
68922;DHT22;55959;51.244;5.724;2024-01-16T09:08:02;3.30;73.30
68922;DHT22;55959;51.244;5.724;2024-01-16T09:10:47;3.40;73.30
68922;DHT22;55959;51.244;5.724;2024-01-16T09:13:21;3.30;73.20
68922;DHT22;55959;51.244;5.724;2024-01-16T09:15:52;3.30;73.20
68922;DHT22;55959;51.244;5.724;2024-01-16T09:18:18;3.30;73.30
68922;DHT22;55959;51.244;5.724;2024-01-16T09:20:44;3.30;73.40
68922;DHT22;55959;51.244;5.724;2024-01-16T09:23:15;3.40;73.40
68922;DHT22;55959;51.244;5.724;2024-01-16T09:28:46;3.40;73.80
68922;DHT22;55959;51.244;5.724;2024-01-16T09:31:17;3.40;73.40
68922;DHT22;55959;51.244;5.724;2024-01-16T09:33:43;3.40;73.40
68922;DHT22;55959;51.244;5.724;2024-01-16T09:36:09;3.40;73.40
68922;DHT22;55959;51.244;5.724;2024-01-16T09:38:35;3.40;73.30
68922;DHT22;55959;51.244;5.724;2024-01-16T09:41:02;3.40;74.10
68922;DHT22;55959;51.244;5.724;2024-01-16T09:43:28;3.40;73.20
68922;DHT22;55959;51.244;5.724;2024-01-16T09:46:00;3.40;73.20
68922;DHT22;55959;51.244;5.724;2024-01-16T09:48:28;3.50;73.30
68922;DHT22;55959;51.244;5.724;2024-01-16T09:50:55;3.50;73.40
68922;DHT22;55959;51.244;5.724;2024-01-16T09:53:24;3.50;73.40
68922;DHT22;55959;51.244;5.724;2024-01-16T09:55:54;3.50;73.40
68922;DHT22;55959;51.244;5.724;2024-01-16T09:58:21;3.50;73.40
68922;DHT22;55959;51.244;5.724;2024-01-16T10:00:50;3.50;73.30
68922;DHT22;55959;51.244;5.724;2024-01-16T10:03:17;3.60;73.30
68922;DHT22;55959;51.244;5.724;2024-01-16T10:05:44;3.60;73.30
68922;DHT22;55959;51.244;5.724;2024-01-16T10:08:11;3.60;73.40
68922;DHT22;55959;51.244;5.724;2024-01-16T10:10:39;3.60;73.40
68922;DHT22;55959;51.244;5.724;2024-01-16T10:13:09;3.60;73.40
68922;DHT22;55959;51.244;5.724;2024-01-16T10:15:35;3.60;73.40
68922;DHT22;55959;51.244;5.724;2024-01-16T10:18:02;3.70;73.40
68922;DHT22;55959;51.244;5.724;2024-01-16T10:20:33;3.70;73.30
68922;DHT22;55959;51.244;5.724;2024-01-16T10:23:00;3.70;73.10
68922;DHT22;55959;51.244;5.724;2024-01-16T10:25:26;3.70;73.10
68922;DHT22;55959;51.244;5.724;2024-01-16T10:28:10;3.70;73.00
68922;DHT22;55959;51.244;5.724;2024-01-16T10:30:37;3.80;73.10
68922;DHT22;55959;51.244;5.724;2024-01-16T10:33:14;3.80;73.00
68922;DHT22;55959;51.244;5.724;2024-01-16T10:35:41;3.80;73.00
68922;DHT22;55959;51.244;5.724;2024-01-16T10:38:07;3.80;72.90
68922;DHT22;55959;51.244;5.724;2024-01-16T10:40:33;3.80;72.80
68922;DHT22;55959;51.244;5.724;2024-01-16T10:43:04;3.90;72.90
68922;DHT22;55959;51.244;5.724;2024-01-16T10:45:33;3.90;72.90
68922;DHT22;55959;51.244;5.724;2024-01-16T10:48:06;3.90;72.70
68922;DHT22;55959;51.244;5.724;2024-01-16T10:50:34;3.90;72.60
68922;DHT22;55959;51.244;5.724;2024-01-16T10:53:06;3.90;72.50
68922;DHT22;55959;51.244;5.724;2024-01-16T10:55:43;4.00;72.60
68922;DHT22;55959;51.244;5.724;2024-01-16T10:58:17;4.00;72.50
68922;DHT22;55959;51.244;5.724;2024-01-16T11:00:51;3.90;72.30
68922;DHT22;55959;51.244;5.724;2024-01-16T11:03:29;4.00;72.20
68922;DHT22;55959;51.244;5.724;2024-01-16T11:05:59;4.00;72.10
68922;DHT22;55959;51.244;5.724;2024-01-16T11:08:27;4.00;72.20
68922;DHT22;55959;51.244;5.724;2024-01-16T11:11:03;4.00;72.10
68922;DHT22;55959;51.244;5.724;2024-01-16T11:13:33;4.00;72.20
68922;DHT22;55959;51.244;5.724;2024-01-16T11:16:04;4.10;72.30
68922;DHT22;55959;51.244;5.724;2024-01-16T11:18:31;4.10;72.30
68922;DHT22;55959;51.244;5.724;2024-01-16T11:20:58;4.10;72.30
68922;DHT22;55959;51.244;5.724;2024-01-16T11:23:25;4.10;72.20
68922;DHT22;55959;51.244;5.724;2024-01-16T11:25:51;4.10;72.00
68922;DHT22;55959;51.244;5.724;2024-01-16T11:28:28;4.20;72.10
68922;DHT22;55959;51.244;5.724;2024-01-16T11:31:00;4.20;71.90
68922;DHT22;55959;51.244;5.724;2024-01-16T11:33:56;4.20;71.80
68922;DHT22;55959;51.244;5.724;2024-01-16T11:36:49;4.20;71.70
68922;DHT22;55959;51.244;5.724;2024-01-16T11:39:34;4.20;71.80
68922;DHT22;55959;51.244;5.724;2024-01-16T11:42:01;4.30;71.70
68922;DHT22;55959;51.244;5.724;2024-01-16T11:44:44;4.30;71.70
68922;DHT22;55959;51.244;5.724;2024-01-16T11:47:20;4.30;71.70
68922;DHT22;55959;51.244;5.724;2024-01-16T11:49:47;4.30;71.70
68922;DHT22;55959;51.244;5.724;2024-01-16T11:52:43;4.30;71.70
68922;DHT22;55959;51.244;5.724;2024-01-16T11:55:44;4.40;71.80
68922;DHT22;55959;51.244;5.724;2024-01-16T12:01:05;4.40;71.70
68922;DHT22;55959;51.244;5.724;2024-01-16T12:03:46;4.40;71.50
68922;DHT22;55959;51.244;5.724;2024-01-16T12:06:16;4.50;71.50
68922;DHT22;55959;51.244;5.724;2024-01-16T12:08:42;4.50;71.60
68922;DHT22;55959;51.244;5.724;2024-01-16T12:11:08;4.50;71.50
68922;DHT22;55959;51.244;5.724;2024-01-16T12:13:34;4.60;71.50
68922;DHT22;55959;51.244;5.724;2024-01-16T12:16:01;4.60;71.30
68922;DHT22;55959;51.244;5.724;2024-01-16T12:18:29;4.60;71.10
68922;DHT22;55959;51.244;5.724;2024-01-16T12:20:55;4.70;70.90
68922;DHT22;55959;51.244;5.724;2024-01-16T12:23:24;4.70;70.70
68922;DHT22;55959;51.244;5.724;2024-01-16T12:25:53;4.70;70.50
68922;DHT22;55959;51.244;5.724;2024-01-16T12:28:20;4.70;70.40
68922;DHT22;55959;51.244;5.724;2024-01-16T12:30:59;4.80;70.50
68922;DHT22;55959;51.244;5.724;2024-01-16T12:33:31;4.80;70.60
68922;DHT22;55959;51.244;5.724;2024-01-16T12:36:01;4.80;70.70
68922;DHT22;55959;51.244;5.724;2024-01-16T12:38:28;4.80;70.70
68922;DHT22;55959;51.244;5.724;2024-01-16T12:40:55;4.90;70.70
68922;DHT22;55959;51.244;5.724;2024-01-16T12:43:21;4.90;70.60
68922;DHT22;55959;51.244;5.724;2024-01-16T12:45:55;4.90;70.50
68922;DHT22;55959;51.244;5.724;2024-01-16T12:48:27;5.00;70.30
68922;DHT22;55959;51.244;5.724;2024-01-16T12:51:01;5.00;71.10
68922;DHT22;55959;51.244;5.724;2024-01-16T12:53:28;5.00;70.10
68922;DHT22;55959;51.244;5.724;2024-01-16T12:55:58;5.10;70.10
68922;DHT22;55959;51.244;5.724;2024-01-16T12:58:42;5.10;70.10
68922;DHT22;55959;51.244;5.724;2024-01-16T13:03:50;5.10;70.00
68922;DHT22;55959;51.244;5.724;2024-01-16T13:06:21;5.20;70.00
68922;DHT22;55959;51.244;5.724;2024-01-16T13:08:48;5.20;69.80
68922;DHT22;55959;51.244;5.724;2024-01-16T13:11:15;5.20;69.70
68922;DHT22;55959;51.244;5.724;2024-01-16T13:13:46;5.20;69.50
68922;DHT22;55959;51.244;5.724;2024-01-16T13:16:14;5.20;69.40
68922;DHT22;55959;51.244;5.724;2024-01-16T13:18:43;5.30;69.30
68922;DHT22;55959;51.244;5.724;2024-01-16T13:21:09;5.30;69.20
68922;DHT22;55959;51.244;5.724;2024-01-16T13:23:36;5.30;69.20
68922;DHT22;55959;51.244;5.724;2024-01-16T13:26:02;5.30;69.10
68922;DHT22;55959;51.244;5.724;2024-01-16T13:28:30;5.40;68.90
68922;DHT22;55959;51.244;5.724;2024-01-16T13:30:56;5.40;68.70
68922;DHT22;55959;51.244;5.724;2024-01-16T13:33:25;5.40;68.60
68922;DHT22;55959;51.244;5.724;2024-01-16T13:35:56;5.40;68.50
68922;DHT22;55959;51.244;5.724;2024-01-16T13:38:30;5.40;68.50
68922;DHT22;55959;51.244;5.724;2024-01-16T13:41:01;5.50;68.50
68922;DHT22;55959;51.244;5.724;2024-01-16T13:43:27;5.50;68.30
68922;DHT22;55959;51.244;5.724;2024-01-16T13:45:54;5.50;68.20
68922;DHT22;55959;51.244;5.724;2024-01-16T13:48:35;5.50;68.10
68922;DHT22;55959;51.244;5.724;2024-01-16T13:51:06;5.50;68.10
68922;DHT22;55959;51.244;5.724;2024-01-16T13:53:32;5.60;68.20
68922;DHT22;55959;51.244;5.724;2024-01-16T13:56:07;5.60;68.10
68922;DHT22;55959;51.244;5.724;2024-01-16T13:58:46;5.60;68.10
68922;DHT22;55959;51.244;5.724;2024-01-16T14:01:12;5.60;67.90
68922;DHT22;55959;51.244;5.724;2024-01-16T14:03:38;5.60;67.70
68922;DHT22;55959;51.244;5.724;2024-01-16T14:06:20;5.70;67.60
68922;DHT22;55959;51.244;5.724;2024-01-16T14:08:46;5.70;67.50
68922;DHT22;55959;51.244;5.724;2024-01-16T14:11:12;5.70;67.40
68922;DHT22;55959;51.244;5.724;2024-01-16T14:13:38;5.70;67.30
68922;DHT22;55959;51.244;5.724;2024-01-16T14:16:04;5.70;67.20
68922;DHT22;55959;51.244;5.724;2024-01-16T14:18:30;5.80;67.10
68922;DHT22;55959;51.244;5.724;2024-01-16T14:20:56;5.70;66.80
68922;DHT22;55959;51.244;5.724;2024-01-16T14:23:22;5.80;66.70
68922;DHT22;55959;51.244;5.724;2024-01-16T14:25:49;5.80;66.30
68922;DHT22;55959;51.244;5.724;2024-01-16T14:28:14;5.80;66.10
68922;DHT22;55959;51.244;5.724;2024-01-16T14:30:43;5.80;66.10
68922;DHT22;55959;51.244;5.724;2024-01-16T14:33:10;5.80;66.10
68922;DHT22;55959;51.244;5.724;2024-01-16T14:35:38;5.80;65.90
68922;DHT22;55959;51.244;5.724;2024-01-16T14:38:04;5.80;65.70
68922;DHT22;55959;51.244;5.724;2024-01-16T14:40:31;5.90;65.60
68922;DHT22;55959;51.244;5.724;2024-01-16T14:43:00;5.90;65.60
68922;DHT22;55959;51.244;5.724;2024-01-16T14:45:30;5.90;65.40
68922;DHT22;55959;51.244;5.724;2024-01-16T14:47:59;5.90;65.20
68922;DHT22;55959;51.244;5.724;2024-01-16T14:50:29;5.90;65.10
68922;DHT22;55959;51.244;5.724;2024-01-16T14:52:55;5.90;64.90
68922;DHT22;55959;51.244;5.724;2024-01-16T14:55:28;5.90;64.80
68922;DHT22;55959;51.244;5.724;2024-01-16T14:57:57;5.90;64.60
68922;DHT22;55959;51.244;5.724;2024-01-16T15:00:26;5.90;64.50
68922;DHT22;55959;51.244;5.724;2024-01-16T15:02:56;5.90;64.50
68922;DHT22;55959;51.244;5.724;2024-01-16T15:05:25;5.90;64.50
68922;DHT22;55959;51.244;5.724;2024-01-16T15:07:53;5.90;64.50
68922;DHT22;55959;51.244;5.724;2024-01-16T15:10:20;5.90;64.50
68922;DHT22;55959;51.244;5.724;2024-01-16T15:12:47;5.90;64.30
68922;DHT22;55959;51.244;5.724;2024-01-16T15:15:15;5.90;64.10
68922;DHT22;55959;51.244;5.724;2024-01-16T15:17:42;5.90;64.10
68922;DHT22;55959;51.244;5.724;2024-01-16T15:20:11;5.90;64.00
68922;DHT22;55959;51.244;5.724;2024-01-16T15:22:42;5.90;63.90
68922;DHT22;55959;51.244;5.724;2024-01-16T15:25:14;5.90;63.90
68922;DHT22;55959;51.244;5.724;2024-01-16T15:27:42;5.90;63.90
68922;DHT22;55959;51.244;5.724;2024-01-16T15:30:12;5.90;64.90
68922;DHT22;55959;51.244;5.724;2024-01-16T15:32:42;5.90;64.10
68922;DHT22;55959;51.244;5.724;2024-01-16T15:35:08;5.90;64.10
68922;DHT22;55959;51.244;5.724;2024-01-16T15:38:06;5.90;64.00
68922;DHT22;55959;51.244;5.724;2024-01-16T15:40:36;5.80;63.80
68922;DHT22;55959;51.244;5.724;2024-01-16T15:43:05;5.80;63.70
68922;DHT22;55959;51.244;5.724;2024-01-16T15:45:31;5.80;63.80
68922;DHT22;55959;51.244;5.724;2024-01-16T15:48:02;5.80;63.70
68922;DHT22;55959;51.244;5.724;2024-01-16T15:50:28;5.70;63.70
68922;DHT22;55959;51.244;5.724;2024-01-16T15:53:04;5.70;63.60
68922;DHT22;55959;51.244;5.724;2024-01-16T15:55:41;5.70;63.60
68922;DHT22;55959;51.244;5.724;2024-01-16T15:58:10;5.70;63.70
68922;DHT22;55959;51.244;5.724;2024-01-16T16:00:36;5.70;63.70